createdAt,value
2018-01-22T00:00:22.636Z,39.73
2018-01-22T00:02:48.796Z,41.10
2018-01-22T00:05:14.970Z,38.73
2018-01-22T00:07:41.220Z,37.67
2018-01-22T00:10:07.384Z,43.87
2018-01-22T00:12:33.598Z,39.93
2018-01-22T00:14:59.881Z,36.50
2018-01-22T00:17:26.060Z,31.67
2018-01-22T00:19:52.243Z,34.30
2018-01-22T00:22:18.381Z,31.67
2018-01-22T00:24:44.557Z,32.20
2018-01-22T00:27:10.779Z,31.13
2018-01-22T00:29:36.999Z,29.47
2018-01-22T00:32:03.172Z,29.57
2018-01-22T00:34:29.325Z,30.10
2018-01-22T00:36:55.529Z,29.93
2018-01-22T00:39:21.910Z,29.20
2018-01-22T00:41:48.067Z,26.60
2018-01-22T00:44:14.302Z,29.57
2018-01-22T00:46:40.510Z,31.53
2018-01-22T00:49:06.800Z,28.87
2018-01-22T00:51:32.971Z,29.67
2018-01-22T00:53:59.222Z,25.93
2018-01-22T00:56:25.483Z,27.20
2018-01-22T00:58:51.692Z,26.97
2018-01-22T01:01:17.884Z,27.27
2018-01-22T01:03:44.017Z,27.73
2018-01-22T01:06:10.257Z,26.50
2018-01-22T01:08:36.499Z,25.10
2018-01-22T01:11:02.664Z,30.33
2018-01-22T01:13:28.878Z,27.43
2018-01-22T01:15:55.097Z,34.20
2018-01-22T01:18:21.324Z,33.83
2018-01-22T01:20:47.462Z,40.17
2018-01-22T01:23:13.660Z,36.83
2018-01-22T01:25:39.826Z,40.40
2018-01-22T01:28:05.998Z,40.03
2018-01-22T01:30:32.168Z,34.57
2018-01-22T01:32:58.346Z,40.37
2018-01-22T01:35:24.489Z,38.83
2018-01-22T01:37:50.629Z,40.37
2018-01-22T01:40:18.019Z,45.43
2018-01-22T01:42:44.218Z,44.33
2018-01-22T01:45:10.511Z,45.50
2018-01-22T01:47:36.690Z,46.27
2018-01-22T01:50:02.909Z,46.37
2018-01-22T01:52:29.134Z,43.07
2018-01-22T01:54:55.266Z,47.77
2018-01-22T01:57:21.502Z,45.60
2018-01-22T01:59:47.681Z,44.03
2018-01-22T02:02:13.821Z,45.63
2018-01-22T02:04:40.076Z,43.20
2018-01-22T02:07:06.209Z,42.00
2018-01-22T02:09:32.565Z,41.97
2018-01-22T02:11:58.703Z,42.47
2018-01-22T02:14:24.937Z,44.13
2018-01-22T02:16:51.096Z,39.20
2018-01-22T02:19:17.317Z,40.70
2018-01-22T02:21:43.618Z,35.23
2018-01-22T02:24:09.759Z,31.60
2018-01-22T02:26:35.907Z,28.33
2018-01-22T02:29:02.161Z,29.43
2018-01-22T02:31:28.317Z,27.83
2018-01-22T02:33:54.478Z,29.43
2018-01-22T02:36:20.620Z,24.80
2018-01-22T02:38:46.824Z,23.33
2018-01-22T02:41:13.008Z,24.07
2018-01-22T02:43:39.318Z,25.10
2018-01-22T02:46:05.549Z,29.00
2018-01-22T02:48:31.723Z,27.50
2018-01-22T02:50:57.947Z,23.27
2018-01-22T02:53:25.043Z,26.77
2018-01-22T02:55:51.163Z,23.97
2018-01-22T02:58:17.330Z,25.17
2018-01-22T03:00:43.555Z,23.73
2018-01-22T03:03:09.681Z,25.90
2018-01-22T03:05:35.810Z,22.47
2018-01-22T03:08:02.036Z,19.50
2018-01-22T03:10:28.206Z,19.83
2018-01-22T03:12:54.342Z,18.90
2018-01-22T03:15:20.533Z,17.27
2018-01-22T03:17:46.652Z,16.63
2018-01-22T03:20:12.877Z,18.37
2018-01-22T03:22:39.009Z,18.53
2018-01-22T03:25:05.161Z,19.47
2018-01-22T03:27:31.326Z,17.77
2018-01-22T03:29:57.528Z,18.23
2018-01-22T03:32:23.687Z,16.80
2018-01-22T03:34:49.910Z,17.13
2018-01-22T03:37:16.055Z,20.30
2018-01-22T03:39:42.260Z,17.70
2018-01-22T03:42:08.461Z,15.83
2018-01-22T03:44:34.580Z,15.03
2018-01-22T03:47:00.782Z,16.13
2018-01-22T03:49:26.986Z,14.07
2018-01-22T03:51:53.126Z,15.00
2018-01-22T03:54:19.333Z,14.37
2018-01-22T03:56:45.501Z,12.83
2018-01-22T03:59:11.701Z,13.83
2018-01-22T04:01:37.979Z,13.67
2018-01-22T04:04:04.103Z,12.97
2018-01-22T04:06:30.249Z,14.47
2018-01-22T04:08:56.458Z,11.87
2018-01-22T04:11:22.581Z,10.40
2018-01-22T04:13:48.720Z,14.13
2018-01-22T04:16:14.906Z,12.73
2018-01-22T04:18:41.072Z,12.60
2018-01-22T04:21:07.237Z,12.97
2018-01-22T04:23:33.500Z,13.73
2018-01-22T04:25:59.626Z,11.67
2018-01-22T04:28:25.784Z,13.40
2018-01-22T04:30:51.985Z,10.87
2018-01-22T04:33:18.128Z,10.83
2018-01-22T04:35:44.315Z,9.83
2018-01-22T04:38:10.505Z,10.57
2018-01-22T04:40:36.725Z,11.90
2018-01-22T04:43:02.909Z,10.87
2018-01-22T04:45:29.096Z,10.90
2018-01-22T04:47:55.248Z,11.00
2018-01-22T04:50:21.459Z,9.73
2018-01-22T04:52:47.617Z,9.93
2018-01-22T04:55:13.781Z,10.07
2018-01-22T04:57:39.936Z,9.17
2018-01-22T05:00:06.264Z,9.73
2018-01-22T05:02:32.384Z,11.03
2018-01-22T05:04:58.552Z,9.17
2018-01-22T05:07:25.558Z,8.97
2018-01-22T05:09:51.762Z,9.07
2018-01-22T05:12:17.915Z,9.90
2018-01-22T05:14:44.114Z,9.73
2018-01-22T05:17:10.313Z,9.60
2018-01-22T05:19:36.507Z,8.73
2018-01-22T05:22:02.653Z,9.43
2018-01-22T05:24:28.841Z,8.83
2018-01-22T05:26:55.006Z,9.40
2018-01-22T05:29:21.214Z,9.07
2018-01-22T05:31:47.454Z,9.43
2018-01-22T05:34:13.598Z,9.20
2018-01-22T05:36:39.756Z,9.13
2018-01-22T05:39:06.500Z,10.07
2018-01-22T05:41:32.726Z,9.80
2018-01-22T05:43:58.884Z,10.90
2018-01-22T05:46:25.209Z,10.27
2018-01-22T05:48:51.366Z,9.93
2018-01-22T05:51:17.578Z,9.87
2018-01-22T05:53:43.790Z,9.60
2018-01-22T05:56:09.968Z,10.90
2018-01-22T05:58:36.234Z,10.03
2018-01-22T06:01:02.424Z,11.60
2018-01-22T06:03:28.620Z,11.50
2018-01-22T06:05:54.809Z,10.77
2018-01-22T06:08:20.962Z,10.97
2018-01-22T06:10:47.210Z,10.50
2018-01-22T06:13:13.362Z,11.27
2018-01-22T06:15:39.583Z,11.33
2018-01-22T06:18:05.783Z,9.93
2018-01-22T06:20:32.991Z,11.33
2018-01-22T06:22:59.145Z,10.80
2018-01-22T06:25:25.387Z,10.33
2018-01-22T06:27:51.695Z,10.77
2018-01-22T06:30:17.927Z,11.07
2018-01-22T06:32:44.107Z,9.87
2018-01-22T06:35:10.273Z,11.40
2018-01-22T06:37:36.454Z,9.97
2018-01-22T06:40:02.652Z,10.03
2018-01-22T06:42:28.800Z,11.30
2018-01-22T06:44:54.988Z,12.97
2018-01-22T06:47:21.225Z,12.47
2018-01-22T06:49:47.532Z,12.00
2018-01-22T06:52:13.725Z,10.60
2018-01-22T06:54:39.880Z,12.03
2018-01-22T06:57:06.098Z,11.63
2018-01-22T06:59:32.399Z,10.23
2018-01-22T07:01:58.567Z,10.83
2018-01-22T07:04:24.736Z,11.07
2018-01-22T07:06:50.906Z,10.90
2018-01-22T07:09:17.061Z,10.60
2018-01-22T07:11:43.337Z,9.53
2018-01-22T07:14:09.524Z,8.63
2018-01-22T07:16:36.352Z,9.53
2018-01-22T07:19:02.610Z,10.67
2018-01-22T07:21:28.792Z,9.83
2018-01-22T07:23:54.954Z,10.30
2018-01-22T07:26:21.129Z,9.93
2018-01-22T07:28:47.345Z,10.57
2018-01-22T07:31:13.563Z,11.77
2018-01-22T07:33:39.729Z,10.23
2018-01-22T07:36:05.953Z,10.00
2018-01-22T07:38:32.853Z,9.07
2018-01-22T07:40:59.103Z,7.90
2018-01-22T07:43:25.260Z,8.10
2018-01-22T07:45:51.499Z,8.10
2018-01-22T07:48:17.684Z,8.80
2018-01-22T07:50:43.886Z,7.73
2018-01-22T07:53:10.040Z,8.37
2018-01-22T07:55:36.204Z,9.13
2018-01-22T07:58:02.400Z,7.87
2018-01-22T08:00:28.596Z,7.80
2018-01-22T08:02:54.743Z,8.23
2018-01-22T08:05:20.877Z,7.17
2018-01-22T08:07:47.048Z,7.43
2018-01-22T08:10:13.268Z,8.83
2018-01-22T08:12:39.449Z,6.80
2018-01-22T08:15:05.671Z,7.57
2018-01-22T08:17:31.913Z,7.70
2018-01-22T08:19:58.157Z,7.77
2018-01-22T08:22:24.336Z,7.30
2018-01-22T08:24:50.482Z,7.77
2018-01-22T08:27:16.646Z,6.97
2018-01-22T08:29:42.832Z,7.17
2018-01-22T08:32:09.063Z,6.90
2018-01-22T08:34:35.356Z,8.30
2018-01-22T08:37:01.608Z,8.80
2018-01-22T08:39:27.720Z,7.97
2018-01-22T08:41:53.942Z,7.23
2018-01-22T08:44:20.191Z,9.07
2018-01-22T08:46:46.425Z,8.17
2018-01-22T08:49:12.600Z,8.50
2018-01-22T08:51:38.930Z,8.53
2018-01-22T08:54:05.077Z,8.23
2018-01-22T08:56:31.227Z,8.23
2018-01-22T08:58:57.468Z,9.50
2018-01-22T09:01:24.238Z,9.60
2018-01-22T09:03:50.402Z,9.77
2018-01-22T09:06:16.570Z,9.47
2018-01-22T09:08:42.724Z,8.53
2018-01-22T09:11:08.925Z,8.60
2018-01-22T09:13:35.096Z,7.23
2018-01-22T09:16:01.354Z,7.57
2018-01-22T09:18:27.510Z,7.10
2018-01-22T09:20:53.823Z,6.60
2018-01-22T09:23:20.868Z,6.70
2018-01-22T09:25:47.032Z,6.43
2018-01-22T09:28:13.291Z,5.57
2018-01-22T09:30:39.486Z,5.43
2018-01-22T09:33:05.637Z,5.77
2018-01-22T09:35:31.923Z,5.30
2018-01-22T09:37:58.102Z,5.87
2018-01-22T09:40:24.347Z,5.90
2018-01-22T09:42:50.490Z,5.50
2018-01-22T09:45:16.784Z,5.50
2018-01-22T09:47:42.946Z,5.00
2018-01-22T09:50:09.192Z,4.93
2018-01-22T09:52:35.435Z,4.60
2018-01-22T09:55:01.696Z,4.43
2018-01-22T09:57:27.796Z,4.90
2018-01-22T09:59:53.923Z,4.70
2018-01-22T10:02:20.035Z,5.30
2018-01-22T10:04:46.131Z,5.40
2018-01-22T10:07:12.287Z,4.40
2018-01-22T10:09:41.625Z,3.90
2018-01-22T10:12:08.335Z,4.43
2018-01-22T10:14:34.637Z,4.10
2018-01-22T10:17:00.826Z,4.20
2018-01-22T10:19:26.988Z,3.70
2018-01-22T10:21:53.187Z,4.10
2018-01-22T10:24:19.421Z,3.83
2018-01-22T10:26:45.762Z,3.93
2018-01-22T10:29:12.048Z,3.50
2018-01-22T10:31:38.324Z,3.87
2018-01-22T10:34:04.773Z,3.30
2018-01-22T10:36:30.914Z,3.57
2018-01-22T10:38:57.106Z,3.43
2018-01-22T10:41:23.309Z,3.70
2018-01-22T10:43:49.439Z,3.87
2018-01-22T10:46:15.732Z,4.33
2018-01-22T10:48:41.895Z,3.43
2018-01-22T10:51:08.102Z,3.93
2018-01-22T10:53:34.232Z,3.70
2018-01-22T10:56:00.382Z,4.23
2018-01-22T10:58:26.588Z,4.60
2018-01-22T11:00:52.824Z,4.60
2018-01-22T11:03:18.991Z,5.73
2018-01-22T11:05:45.240Z,4.13
2018-01-22T11:08:11.400Z,4.83
2018-01-22T11:10:37.575Z,4.03
2018-01-22T11:13:03.812Z,4.33
2018-01-22T11:15:36.003Z,3.00
2018-01-22T11:18:02.152Z,3.73
2018-01-22T11:20:28.331Z,3.10
2018-01-22T11:22:54.529Z,3.00
2018-01-22T11:25:20.683Z,3.17
2018-01-22T11:27:46.872Z,2.93
2018-01-22T11:30:13.033Z,2.63
2018-01-22T11:32:39.502Z,2.60
2018-01-22T11:35:05.687Z,3.60
2018-01-22T11:37:31.818Z,3.30
2018-01-22T11:39:59.032Z,3.10
2018-01-22T11:42:25.289Z,3.03
2018-01-22T11:44:53.298Z,3.13
2018-01-22T11:47:19.544Z,2.70
2018-01-22T11:49:45.740Z,3.30
2018-01-22T11:52:11.977Z,3.20
2018-01-22T11:54:38.201Z,2.67
2018-01-22T11:57:04.424Z,2.93
2018-01-22T11:59:30.744Z,2.53
2018-01-22T12:01:56.928Z,3.13
2018-01-22T12:04:23.182Z,2.80
2018-01-22T12:06:49.395Z,2.80
2018-01-22T12:09:15.598Z,2.87
2018-01-22T12:11:41.764Z,2.77
2018-01-22T12:14:07.944Z,3.03
2018-01-22T12:16:34.181Z,3.60
2018-01-22T12:19:00.383Z,2.73
2018-01-22T12:21:26.579Z,3.13
2018-01-22T12:23:52.761Z,3.20
2018-01-22T12:26:18.937Z,2.97
2018-01-22T12:28:45.113Z,2.97
2018-01-22T12:31:11.307Z,3.30
2018-01-22T12:33:37.519Z,3.10
2018-01-22T12:36:03.786Z,3.30
2018-01-22T12:38:29.968Z,3.07
2018-01-22T12:40:56.279Z,3.23
2018-01-22T12:43:22.477Z,2.73
2018-01-22T12:45:48.712Z,3.20
2018-01-22T12:48:14.982Z,2.87
2018-01-22T12:50:41.258Z,3.10
2018-01-22T12:53:07.563Z,3.10
2018-01-22T12:55:34.089Z,3.47
2018-01-22T12:58:01.453Z,3.13
2018-01-22T13:00:27.767Z,3.23
2018-01-22T13:02:53.994Z,3.60
2018-01-22T13:05:20.233Z,3.23
2018-01-22T13:07:46.476Z,4.10
2018-01-22T13:10:12.786Z,3.00
2018-01-22T13:12:38.961Z,3.00
2018-01-22T13:15:05.190Z,3.43
2018-01-22T13:17:31.438Z,3.00
2018-01-22T13:19:58.932Z,3.47
2018-01-22T13:22:25.088Z,3.30
2018-01-22T13:24:51.380Z,2.53
2018-01-22T13:27:17.569Z,2.83
2018-01-22T13:29:43.823Z,3.43
2018-01-22T13:32:10.021Z,3.53
2018-01-22T13:34:36.233Z,2.83
2018-01-22T13:37:02.552Z,2.67
2018-01-22T13:39:28.819Z,3.07
2018-01-22T13:41:56.177Z,2.87
2018-01-22T13:44:22.452Z,3.50
2018-01-22T13:46:48.838Z,3.00
2018-01-22T13:49:15.224Z,2.43
2018-01-22T13:51:41.413Z,3.50
2018-01-22T13:54:07.609Z,3.23
2018-01-22T13:56:33.836Z,3.60
2018-01-22T13:59:00.010Z,4.60
2018-01-22T14:01:26.304Z,3.00
2018-01-22T14:03:52.649Z,2.97
2018-01-22T14:06:18.845Z,3.43
2018-01-22T14:08:45.019Z,3.23
2018-01-22T14:11:11.285Z,3.37
2018-01-22T14:13:37.485Z,3.27
2018-01-22T14:16:03.729Z,3.17
2018-01-22T14:18:29.956Z,3.10
2018-01-22T14:20:56.235Z,3.60
2018-01-22T14:23:22.431Z,3.43
2018-01-22T14:25:48.645Z,2.93
2018-01-22T14:28:14.878Z,2.80
2018-01-22T14:30:41.094Z,4.00
2018-01-22T14:33:07.286Z,3.20
2018-01-22T14:35:33.476Z,3.00
2018-01-22T14:37:59.670Z,2.80
2018-01-22T14:40:25.842Z,3.23
2018-01-22T14:42:52.062Z,3.07
2018-01-22T14:45:18.347Z,2.73
2018-01-22T14:47:44.559Z,3.27
2018-01-22T14:50:10.768Z,3.70
2018-01-22T14:52:37.031Z,3.00
2018-01-22T14:55:03.281Z,4.30
2018-01-22T14:57:29.451Z,3.27
2018-01-22T14:59:55.681Z,3.23
2018-01-22T15:02:21.906Z,3.40
2018-01-22T15:04:53.385Z,3.30
2018-01-22T15:07:19.679Z,3.10
2018-01-22T15:09:45.920Z,3.53
2018-01-22T15:12:12.072Z,3.43
2018-01-22T15:14:38.296Z,3.17
2018-01-22T15:17:04.472Z,2.73
2018-01-22T15:19:30.886Z,2.70
2018-01-22T15:21:57.165Z,2.53
2018-01-22T15:24:23.376Z,3.50
2018-01-22T15:26:49.612Z,3.23
2018-01-22T15:29:15.834Z,4.40
2018-01-22T15:31:42.068Z,3.40
2018-01-22T15:34:08.354Z,3.33
2018-01-22T15:36:34.669Z,3.10
2018-01-22T15:39:00.996Z,3.73
2018-01-22T15:41:27.406Z,3.30
2018-01-22T15:43:53.671Z,4.37
2018-01-22T15:46:20.118Z,4.40
2018-01-22T15:48:46.370Z,5.47
2018-01-22T15:51:12.609Z,4.60
2018-01-22T15:53:38.880Z,3.00
2018-01-22T15:56:05.216Z,3.37
2018-01-22T15:58:31.458Z,3.67
2018-01-22T16:00:57.752Z,4.17
2018-01-22T16:03:24.075Z,3.70
2018-01-22T16:05:50.305Z,3.77
2018-01-22T16:08:16.578Z,3.93
2018-01-22T16:10:43.065Z,3.53
2018-01-22T16:13:09.847Z,4.60
2018-01-22T16:15:36.095Z,4.30
2018-01-22T16:18:02.308Z,3.80
2018-01-22T16:20:28.584Z,4.20
2018-01-22T16:22:54.788Z,3.63
2018-01-22T16:25:20.986Z,3.60
2018-01-22T16:27:47.243Z,3.43
2018-01-22T16:30:13.479Z,3.00
2018-01-22T16:32:39.657Z,3.30
2018-01-22T16:35:05.889Z,3.23
2018-01-22T16:37:32.063Z,4.17
2018-01-22T16:39:58.266Z,3.90
2018-01-22T16:42:25.468Z,4.30
2018-01-22T16:44:51.689Z,3.57
2018-01-22T16:47:24.757Z,4.30
2018-01-22T16:49:51.003Z,3.83
2018-01-22T16:52:17.252Z,3.63
2018-01-22T16:54:43.471Z,4.17
2018-01-22T16:57:09.692Z,3.87
2018-01-22T16:59:35.991Z,3.93
2018-01-22T17:02:02.232Z,4.20
2018-01-22T17:04:28.432Z,4.27
2018-01-22T17:06:54.621Z,4.67
2018-01-22T17:09:20.852Z,5.00
2018-01-22T17:11:47.116Z,4.20
2018-01-22T17:14:13.309Z,4.13
2018-01-22T17:16:39.551Z,4.40
2018-01-22T17:19:05.781Z,4.10
2018-01-22T17:21:32.001Z,4.20
2018-01-22T17:23:58.180Z,3.97
2018-01-22T17:26:24.377Z,4.60
2018-01-22T17:28:50.668Z,4.40
2018-01-22T17:31:17.027Z,4.60
2018-01-22T17:33:43.269Z,4.47
2018-01-22T17:36:09.432Z,4.97
2018-01-22T17:38:35.625Z,4.70
2018-01-22T17:41:01.816Z,8.00
2018-01-22T17:43:28.005Z,9.10
2018-01-22T17:45:54.264Z,7.53
2018-01-22T17:48:20.417Z,5.83
2018-01-22T17:50:46.869Z,6.43
2018-01-22T17:53:13.051Z,5.37
2018-01-22T17:55:39.190Z,5.60
2018-01-22T17:58:05.494Z,6.10
2018-01-22T18:00:31.687Z,5.13
2018-01-22T18:02:57.958Z,5.73
2018-01-22T18:05:24.179Z,4.83
2018-01-22T18:07:50.365Z,5.03
2018-01-22T18:10:16.596Z,5.33
2018-01-22T18:12:42.834Z,5.53
2018-01-22T18:15:09.135Z,5.40
2018-01-22T18:17:35.437Z,4.57
2018-01-22T18:20:01.717Z,5.57
2018-01-22T18:22:27.999Z,6.33
2018-01-22T18:24:54.477Z,5.57
2018-01-22T18:27:20.807Z,4.70
2018-01-22T18:29:47.030Z,4.43
2018-01-22T18:32:13.291Z,5.23
2018-01-22T18:34:39.571Z,5.47
2018-01-22T18:37:05.752Z,5.30
2018-01-22T18:39:31.986Z,5.93
2018-01-22T18:41:58.439Z,5.77
2018-01-22T18:44:24.748Z,5.63
2018-01-22T18:46:52.732Z,6.13
2018-01-22T18:49:18.976Z,6.17
2018-01-22T18:51:45.380Z,6.17
2018-01-22T18:54:11.719Z,5.07
2018-01-22T18:56:37.858Z,5.30
2018-01-22T18:59:04.091Z,7.30
2018-01-22T19:01:30.436Z,13.77
2018-01-22T19:03:56.671Z,5.37
2018-01-22T19:06:22.831Z,6.10
2018-01-22T19:08:49.033Z,5.57
2018-01-22T19:11:15.337Z,4.63
2018-01-22T19:13:41.552Z,5.03
2018-01-22T19:16:07.828Z,4.77
2018-01-22T19:18:34.010Z,5.70
2018-01-22T19:21:00.308Z,4.77
2018-01-22T19:23:26.463Z,4.83
2018-01-22T19:25:52.631Z,4.30
2018-01-22T19:28:18.780Z,4.37
2018-01-22T19:30:45.018Z,4.50
2018-01-22T19:33:11.271Z,6.00
2018-01-22T19:35:37.452Z,3.77
2018-01-22T19:38:03.651Z,4.30
2018-01-22T19:40:29.904Z,4.63
2018-01-22T19:42:56.168Z,4.37
2018-01-22T19:45:22.377Z,3.87
2018-01-22T19:47:48.570Z,4.27
2018-01-22T19:50:14.722Z,4.00
2018-01-22T19:52:41.662Z,4.80
2018-01-22T19:55:08.003Z,3.97
2018-01-22T19:57:34.169Z,4.47
2018-01-22T20:00:00.336Z,4.57
2018-01-22T20:02:26.580Z,4.60
2018-01-22T20:04:52.768Z,4.27
2018-01-22T20:07:18.959Z,4.33
2018-01-22T20:09:45.225Z,4.27
2018-01-22T20:12:11.454Z,5.97
2018-01-22T20:14:37.616Z,4.20
2018-01-22T20:17:03.815Z,5.07
2018-01-22T20:19:30.008Z,4.27
2018-01-22T20:21:57.002Z,4.23
2018-01-22T20:24:23.212Z,4.00
2018-01-22T20:26:49.377Z,4.07
2018-01-22T20:29:15.520Z,4.23
2018-01-22T20:31:41.707Z,4.53
2018-01-22T20:34:07.947Z,4.80
2018-01-22T20:36:35.290Z,4.37
2018-01-22T20:39:01.592Z,4.93
2018-01-22T20:41:27.913Z,3.67
2018-01-22T20:43:54.054Z,4.53
2018-01-22T20:46:20.288Z,4.50
2018-01-22T20:48:46.520Z,4.63
2018-01-22T20:51:12.727Z,5.87
2018-01-22T20:53:39.041Z,4.73
2018-01-22T20:56:05.200Z,3.60
2018-01-22T20:58:32.773Z,4.47
2018-01-22T21:00:58.933Z,4.23
2018-01-22T21:03:25.172Z,3.87
2018-01-22T21:05:51.405Z,3.60
2018-01-22T21:08:17.562Z,4.13
2018-01-22T21:10:43.765Z,3.77
2018-01-22T21:13:09.960Z,3.10
2018-01-22T21:15:36.171Z,3.77
2018-01-22T21:18:02.419Z,6.47
2018-01-22T21:20:28.977Z,4.53
2018-01-22T21:22:55.217Z,3.40
2018-01-22T21:25:21.417Z,3.83
2018-01-22T21:27:47.570Z,5.97
2018-01-22T21:30:13.725Z,4.80
2018-01-22T21:32:39.971Z,4.20
2018-01-22T21:35:06.180Z,3.83
2018-01-22T21:37:32.386Z,3.20
2018-01-22T21:39:58.607Z,3.63
2018-01-22T21:42:24.824Z,3.20
2018-01-22T21:44:50.988Z,4.27
2018-01-22T21:47:17.256Z,3.10
2018-01-22T21:49:43.421Z,3.37
2018-01-22T21:52:09.597Z,4.13
2018-01-22T21:54:35.790Z,3.97
2018-01-22T21:57:02.029Z,3.20
2018-01-22T21:59:28.175Z,3.07
2018-01-22T22:01:54.425Z,3.83
2018-01-22T22:04:20.570Z,2.93
2018-01-22T22:06:46.739Z,3.90
2018-01-22T22:09:12.933Z,4.90
2018-01-22T22:11:39.099Z,5.77
2018-01-22T22:14:05.435Z,5.10
2018-01-22T22:16:33.194Z,5.90
2018-01-22T22:18:59.356Z,5.13
2018-01-22T22:21:25.588Z,5.17
2018-01-22T22:23:51.790Z,5.50
2018-01-22T22:26:17.952Z,4.80
2018-01-22T22:28:44.209Z,4.87
2018-01-22T22:31:10.377Z,5.10
2018-01-22T22:33:36.612Z,5.90
2018-01-22T22:36:02.797Z,5.20
2018-01-22T22:38:28.998Z,5.30
2018-01-22T22:40:55.184Z,5.13
2018-01-22T22:43:21.449Z,4.93
2018-01-22T22:45:47.652Z,5.73
2018-01-22T22:48:13.798Z,5.93
2018-01-22T22:50:39.989Z,5.30
2018-01-22T22:53:06.205Z,4.97
2018-01-22T22:55:32.410Z,4.57
2018-01-22T22:57:58.589Z,3.87
2018-01-22T23:00:24.785Z,4.07
2018-01-22T23:02:50.970Z,4.13
2018-01-22T23:05:18.197Z,5.13
2018-01-22T23:07:44.451Z,4.00
2018-01-22T23:10:10.613Z,4.20
2018-01-22T23:12:36.842Z,4.47
2018-01-22T23:15:03.082Z,4.07
2018-01-22T23:17:29.291Z,3.83
2018-01-22T23:19:55.494Z,3.90
2018-01-22T23:22:21.692Z,3.97
2018-01-22T23:24:48.081Z,4.43
2018-01-22T23:27:14.414Z,3.77
2018-01-22T23:29:40.573Z,4.13
2018-01-22T23:32:06.749Z,4.60
2018-01-22T23:34:32.909Z,4.67
2018-01-22T23:36:59.066Z,4.00
2018-01-22T23:39:25.255Z,4.10
2018-01-22T23:41:51.426Z,4.10
2018-01-22T23:44:17.623Z,3.80
2018-01-22T23:46:43.812Z,4.33
2018-01-22T23:49:10.005Z,4.00
2018-01-22T23:51:36.177Z,4.30
2018-01-22T23:54:02.382Z,3.80
2018-01-22T23:56:28.512Z,3.60
2018-01-22T23:58:54.660Z,3.93
